Time;durP1;ratioP1;P1;durP2;ratioP2;P2;SDS_P1;SDS_P2;PMS_P1;PMS_P2;Temp;Humidity;BMP_temperature;BMP_pressure;BME280_temperature;BME280_humidity;BME280_pressure;Samples;Min_cycle;Max_cycle;Signal;HPM_P1;HPM_P2
2022/07/02 00:06:13;;;;;;;9.15;5.80;;;;;;;;;;5108655;27;20415;-73
2022/07/02 00:11:46;;;;;;;7.75;5.45;;;;;;;;;;5111429;27;20385;-72
2022/07/02 00:16:52;;;;;;;9.77;5.80;;;;;;;;;;5112091;27;20994;-73
2022/07/02 00:19:18;;;;;;;7.20;5.25;;;;;;;;;;5111323;28;20031;-72
2022/07/02 00:26:28;;;;;;;7.20;5.22;;;;;;;;;;5111820;27;20401;-71
2022/07/02 00:29:01;;;;;;;9.85;5.60;;;;;;;;;;5109656;28;20035;-71
2022/07/02 00:31:28;;;;;;;11.02;6.07;;;;;;;;;;5110035;28;20024;-72
2022/07/02 00:33:55;;;;;;;6.22;4.72;;;;;;;;;;5111348;28;20117;-72
2022/07/02 00:37:44;;;;;;;9.00;5.25;;;;;;;;;;5112086;27;20458;-72
2022/07/02 00:40:10;;;;;;;8.15;5.22;;;;;;;;;;5111415;28;20028;-72
2022/07/02 00:42:36;;;;;;;7.78;5.68;;;;;;;;;;5109679;28;20581;-72
2022/07/02 00:46:57;;;;;;;8.55;5.50;;;;;;;;;;5111702;27;20448;-71
2022/07/02 00:49:23;;;;;;;8.23;5.82;;;;;;;;;;5110943;28;20377;-71
2022/07/02 00:51:50;;;;;;;8.18;6.05;;;;;;;;;;5110014;28;20490;-71
2022/07/02 00:54:16;;;;;;;8.40;5.70;;;;;;;;;;5111321;28;20024;-71
2022/07/02 00:56:42;;;;;;;8.70;5.80;;;;;;;;;;5109515;28;20488;-71
2022/07/02 00:59:08;;;;;;;8.63;5.28;;;;;;;;;;5111149;28;20073;-71
2022/07/02 01:03:02;;;;;;;8.95;5.85;;;;;;;;;;5111282;27;20462;-72
2022/07/02 01:05:28;;;;;;;11.93;6.18;;;;;;;;;;5111324;28;20039;-71
2022/07/02 01:12:29;;;;;;;8.05;5.85;;;;;;;;;;5152648;27;20113;-72
2022/07/02 01:14:56;;;;;;;8.63;5.97;;;;;;;;;;5132054;28;20042;-72
2022/07/02 01:17:22;;;;;;;11.68;6.15;;;;;;;;;;5131398;28;20421;-72
2022/07/02 01:19:49;;;;;;;10.98;6.15;;;;;;;;;;5131700;28;20038;-72
2022/07/02 01:22:18;;;;;;;8.98;6.60;;;;;;;;;;5131682;28;20028;-72
2022/07/02 01:24:45;;;;;;;9.23;6.38;;;;;;;;;;5131395;28;20042;-72
2022/07/02 01:27:11;;;;;;;9.40;5.75;;;;;;;;;;5131703;28;20425;-72
2022/07/02 01:29:38;;;;;;;7.93;5.97;;;;;;;;;;5131555;28;20404;-72
2022/07/02 01:32:04;;;;;;;9.43;5.90;;;;;;;;;;5131161;28;20031;-72
2022/07/02 01:34:49;;;;;;;10.48;6.13;;;;;;;;;;5113109;28;20047;-72
2022/07/02 01:40:33;;;;;;;8.82;5.90;;;;;;;;;;5112162;27;20392;-72
2022/07/02 01:42:59;;;;;;;9.60;6.65;;;;;;;;;;5110121;28;20422;-72
2022/07/02 01:45:25;;;;;;;9.27;6.20;;;;;;;;;;5111007;28;20030;-72
2022/07/02 01:49:21;;;;;;;11.75;6.43;;;;;;;;;;5112227;27;20405;-71
2022/07/02 01:51:47;;;;;;;9.02;6.85;;;;;;;;;;5109699;28;20028;-71
2022/07/02 01:54:14;;;;;;;10.15;6.13;;;;;;;;;;5111347;28;20095;-71
2022/07/02 01:58:19;;;;;;;8.18;6.15;;;;;;;;;;5111766;27;20962;-72
2022/07/02 02:00:59;;;;;;;8.85;6.10;;;;;;;;;;5112209;27;20388;-72
2022/07/02 02:03:25;;;;;;;8.85;6.57;;;;;;;;;;5111422;28;20464;-72
2022/07/02 02:05:54;;;;;;;9.77;6.00;;;;;;;;;;5111007;28;20050;-72
2022/07/02 02:08:20;;;;;;;11.27;7.18;;;;;;;;;;5111849;28;20028;-72
2022/07/02 02:11:03;;;;;;;10.38;6.15;;;;;;;;;;5111748;27;20418;-72
2022/07/02 02:13:29;;;;;;;10.43;6.95;;;;;;;;;;5111006;28;20030;-71
2022/07/02 02:17:13;;;;;;;8.15;6.10;;;;;;;;;;5112086;27;20384;-72
2022/07/02 02:19:39;;;;;;;10.65;6.80;;;;;;;;;;5111208;28;20020;-72
2022/07/02 02:22:05;;;;;;;8.82;6.65;;;;;;;;;;5111299;28;20024;-72
2022/07/02 02:25:14;;;;;;;8.68;5.68;;;;;;;;;;5112247;27;20481;-71
2022/07/02 02:27:40;;;;;;;8.65;5.78;;;;;;;;;;5111033;28;20463;-71
2022/07/02 02:30:06;;;;;;;8.98;5.78;;;;;;;;;;5110044;28;20020;-71
2022/07/02 02:32:33;;;;;;;9.60;5.72;;;;;;;;;;5111310;28;20058;-71
2022/07/02 02:34:59;;;;;;;9.00;6.07;;;;;;;;;;5110816;28;20030;-71
2022/07/02 02:37:25;;;;;;;7.97;5.90;;;;;;;;;;5111216;28;20096;-71
2022/07/02 02:39:51;;;;;;;8.68;6.15;;;;;;;;;;5109875;28;20122;-72
2022/07/02 02:44:20;;;;;;;8.23;5.78;;;;;;;;;;5112051;27;20424;-72
2022/07/02 02:47:40;;;;;;;9.77;7.05;;;;;;;;;;5070991;27;20473;-72
2022/07/02 02:51:32;;;;;;;8.20;5.65;;;;;;;;;;5111569;27;20949;-71
2022/07/02 02:54:16;;;;;;;8.52;5.50;;;;;;;;;;5111734;27;20477;-71
2022/07/02 02:57:25;;;;;;;9.15;6.05;;;;;;;;;;5091972;27;20460;-72
2022/07/02 02:59:51;;;;;;;7.65;5.50;;;;;;;;;;5091010;28;20073;-72
2022/07/02 03:02:17;;;;;;;8.70;6.00;;;;;;;;;;5090565;28;20051;-72
2022/07/02 03:04:43;;;;;;;7.80;5.72;;;;;;;;;;5090961;28;20533;-72
2022/07/02 03:07:10;;;;;;;8.13;5.82;;;;;;;;;;5090908;28;20032;-71
2022/07/02 03:09:36;;;;;;;8.25;6.00;;;;;;;;;;5090581;28;20030;-71
2022/07/02 03:15:11;;;;;;;7.72;5.93;;;;;;;;;;5111700;27;20396;-72
2022/07/02 03:17:37;;;;;;;7.80;5.90;;;;;;;;;;5110804;28;20480;-73
2022/07/02 03:20:18;;;;;;;9.57;6.65;;;;;;;;;;5112012;27;20776;-71
2022/07/02 03:22:44;;;;;;;8.85;6.47;;;;;;;;;;5111294;28;20023;-71
2022/07/02 03:25:11;;;;;;;11.25;6.75;;;;;;;;;;5126757;28;20058;-72
2022/07/02 03:27:37;;;;;;;8.60;6.78;;;;;;;;;;5111391;28;20016;-72
2022/07/02 03:30:05;;;;;;;9.57;6.30;;;;;;;;;;5111081;28;20082;-72
2022/07/02 03:34:25;;;;;;;9.95;6.57;;;;;;;;;;5112244;27;20397;-72
2022/07/02 03:36:51;;;;;;;10.35;6.88;;;;;;;;;;5110981;28;20024;-72
2022/07/02 03:40:03;;;;;;;8.93;6.40;;;;;;;;;;5111466;27;20393;-72
2022/07/02 03:42:30;;;;;;;10.50;6.93;;;;;;;;;;5109986;28;20024;-72
2022/07/02 03:45:55;;;;;;;10.60;6.25;;;;;;;;;;5111137;27;20454;-72
2022/07/02 03:48:21;;;;;;;10.43;7.05;;;;;;;;;;5111427;28;20031;-72
2022/07/02 03:55:01;;;;;;;8.82;6.30;;;;;;;;;;5111463;27;20396;-72
2022/07/02 03:57:27;;;;;;;9.90;7.00;;;;;;;;;;5111402;28;20023;-72
2022/07/02 04:01:44;;;;;;;8.25;5.97;;;;;;;;;;5112092;27;20396;-72
2022/07/02 04:04:10;;;;;;;10.80;7.13;;;;;;;;;;5110143;28;20024;-73
2022/07/02 04:11:23;;;;;;;9.50;7.00;;;;;;;;;;5112058;27;20935;-72
2022/07/02 04:15:23;;;;;;;9.20;7.50;;;;;;;;;;5111693;27;20481;-72
2022/07/02 04:23:08;;;;;;;13.75;6.97;;;;;;;;;;5112170;27;20390;-72
2022/07/02 04:25:34;;;;;;;9.88;6.68;;;;;;;;;;5111360;28;20119;-72
2022/07/02 04:29:06;;;;;;;7.95;5.90;;;;;;;;;;5112090;27;20899;-72
2022/07/02 04:31:32;;;;;;;10.07;7.03;;;;;;;;;;5111383;28;20053;-72
2022/07/02 04:33:58;;;;;;;8.73;5.57;;;;;;;;;;5126743;28;20024;-72
2022/07/02 04:36:24;;;;;;;9.55;6.18;;;;;;;;;;5127160;28;20024;-72
2022/07/02 04:39:48;;;;;;;8.57;6.00;;;;;;;;;;5111457;27;20454;-72
2022/07/02 04:42:14;;;;;;;7.85;5.43;;;;;;;;;;5110918;28;20024;-72
2022/07/02 04:44:40;;;;;;;10.80;6.65;;;;;;;;;;5109997;28;20027;-72
2022/07/02 04:47:06;;;;;;;9.35;5.80;;;;;;;;;;5111289;28;20426;-72
2022/07/02 04:49:32;;;;;;;8.93;5.90;;;;;;;;;;5110709;28;20040;-72
2022/07/02 04:51:59;;;;;;;8.38;6.03;;;;;;;;;;5109869;28;20415;-72
2022/07/02 04:54:34;;;;;;;8.15;5.65;;;;;;;;;;5111224;27;20401;-72
2022/07/02 04:57:00;;;;;;;8.57;5.63;;;;;;;;;;5111319;28;20035;-72
2022/07/02 04:59:26;;;;;;;10.20;6.03;;;;;;;;;;5111270;28;20038;-72
2022/07/02 05:01:53;;;;;;;7.45;5.65;;;;;;;;;;5110835;28;20020;-72
2022/07/02 05:06:12;;;;;;;8.52;5.97;;;;;;;;;;5111619;27;20109;-72
2022/07/02 05:08:57;;;;;;;9.23;5.97;;;;;;;;;;5111492;27;20434;-72
2022/07/02 05:11:37;;;;;;;8.45;5.68;;;;;;;;;;5111448;27;20466;-71
2022/07/02 05:14:04;;;;;;;8.95;5.93;;;;;;;;;;5111420;28;20106;-72
2022/07/02 05:16:30;;;;;;;11.30;6.70;;;;;;;;;;5110917;28;20357;-72
2022/07/02 05:18:56;;;;;;;8.38;6.20;;;;;;;;;;5111244;28;20034;-72
2022/07/02 05:21:22;;;;;;;9.45;6.93;;;;;;;;;;5111161;28;20020;-72
2022/07/02 05:23:48;;;;;;;8.82;5.95;;;;;;;;;;5110767;28;20462;-72
2022/07/02 05:26:14;;;;;;;9.30;6.18;;;;;;;;;;5111155;28;20024;-72
2022/07/02 05:28:40;;;;;;;9.05;5.75;;;;;;;;;;5111603;28;20016;-71
2022/07/02 05:33:14;;;;;;;8.18;5.65;;;;;;;;;;5111799;27;20404;-72
2022/07/02 05:35:40;;;;;;;10.80;6.90;;;;;;;;;;5111379;28;20019;-73
2022/07/02 05:38:06;;;;;;;10.13;6.68;;;;;;;;;;5110936;28;20020;-73
2022/07/02 05:40:32;;;;;;;9.73;5.97;;;;;;;;;;5111299;28;20073;-72
2022/07/02 05:45:15;;;;;;;10.32;5.93;;;;;;;;;;5108645;27;20466;-72
2022/07/02 05:48:53;;;;;;;8.15;5.50;;;;;;;;;;5112143;27;20389;-71
2022/07/02 05:53:32;;;;;;;8.60;6.00;;;;;;;;;;5071535;28;20786;-72
2022/07/02 05:56:48;;;;;;;10.80;6.28;;;;;;;;;;5112071;27;20846;-72
2022/07/02 05:59:14;;;;;;;9.68;7.32;;;;;;;;;;5111007;28;20099;-72
2022/07/02 06:02:24;;;;;;;8.35;6.13;;;;;;;;;;5111759;27;20442;-72
2022/07/02 06:04:51;;;;;;;9.63;6.53;;;;;;;;;;5111002;28;20028;-72
2022/07/02 06:08:31;;;;;;;9.73;6.57;;;;;;;;;;5112012;27;20896;-72
2022/07/02 06:12:12;;;;;;;9.93;6.65;;;;;;;;;;5111316;27;20776;-71
2022/07/02 06:14:38;;;;;;;10.05;7.63;;;;;;;;;;5110390;28;20043;-71
2022/07/02 06:17:05;;;;;;;11.05;6.55;;;;;;;;;;5110039;28;20024;-72
2022/07/02 06:19:31;;;;;;;9.43;7.15;;;;;;;;;;5109684;28;20066;-71
2022/07/02 06:21:57;;;;;;;12.40;8.18;;;;;;;;;;5111316;28;20107;-71
2022/07/02 06:24:23;;;;;;;8.82;6.43;;;;;;;;;;5111198;28;20055;-72
2022/07/02 06:26:49;;;;;;;9.00;6.22;;;;;;;;;;5110724;28;20026;-72
2022/07/02 06:29:15;;;;;;;9.63;6.50;;;;;;;;;;5109859;28;20106;-72
2022/07/02 06:31:42;;;;;;;9.32;6.53;;;;;;;;;;5110970;28;20028;-72
2022/07/02 06:35:13;;;;;;;10.25;6.63;;;;;;;;;;5111914;27;20892;-72
2022/07/02 06:38:57;;;;;;;10.88;6.50;;;;;;;;;;5112002;27;20400;-72
2022/07/02 06:44:09;;;;;;;12.93;5.93;;;;;;;;;;5111317;28;20042;-72
2022/07/02 06:46:35;;;;;;;7.72;5.45;;;;;;;;;;5111230;28;20015;-71
2022/07/02 06:49:01;;;;;;;11.00;5.70;;;;;;;;;;5110796;28;20047;-72
2022/07/02 06:51:27;;;;;;;8.98;5.90;;;;;;;;;;5111267;28;20479;-72
2022/07/02 06:54:57;;;;;;;9.27;6.10;;;;;;;;;;5111181;27;20416;-72
2022/07/02 06:57:24;;;;;;;9.73;6.00;;;;;;;;;;5111332;28;20449;-72
2022/07/02 07:00:58;;;;;;;9.38;5.35;;;;;;;;;;5111220;27;20401;-72
2022/07/02 07:03:24;;;;;;;8.45;5.40;;;;;;;;;;5111310;28;20480;-72
2022/07/02 07:05:52;;;;;;;7.57;5.30;;;;;;;;;;5111274;28;20038;-72
2022/07/02 07:08:18;;;;;;;7.72;4.85;;;;;;;;;;5110912;28;20050;-72
2022/07/02 07:10:44;;;;;;;12.77;6.45;;;;;;;;;;5111170;28;20031;-72
2022/07/02 07:13:11;;;;;;;6.35;4.68;;;;;;;;;;5111153;28;20053;-72
2022/07/02 07:15:37;;;;;;;8.55;5.00;;;;;;;;;;5110704;28;20030;-72
2022/07/02 07:18:03;;;;;;;8.85;5.35;;;;;;;;;;5110980;28;20509;-72
2022/07/02 07:21:40;;;;;;;7.43;5.07;;;;;;;;;;5111762;27;20454;-73
2022/07/02 07:24:07;;;;;;;8.32;5.60;;;;;;;;;;5110928;28;20467;-73
2022/07/02 07:26:33;;;;;;;8.13;5.30;;;;;;;;;;5111763;28;20024;-73
2022/07/02 07:29:05;;;;;;;7.93;5.53;;;;;;;;;;5110849;28;20096;-73
2022/07/02 07:31:32;;;;;;;7.20;5.07;;;;;;;;;;5111286;28;20020;-73
2022/07/02 07:33:58;;;;;;;8.82;5.30;;;;;;;;;;5111279;28;20024;-73
2022/07/02 07:36:26;;;;;;;11.52;6.35;;;;;;;;;;5110726;28;20107;-73
2022/07/02 07:38:53;;;;;;;9.95;6.00;;;;;;;;;;5111043;28;20471;-73
2022/07/02 07:41:20;;;;;;;8.93;5.80;;;;;;;;;;5111269;28;20158;-73
2022/07/02 07:43:46;;;;;;;8.93;5.78;;;;;;;;;;5110476;28;20024;-73
2022/07/02 07:46:12;;;;;;;8.80;5.72;;;;;;;;;;5110940;28;20059;-73
2022/07/02 07:48:39;;;;;;;10.23;6.25;;;;;;;;;;5111058;28;20379;-73
2022/07/02 07:51:05;;;;;;;8.75;6.07;;;;;;;;;;5110443;28;20392;-73
2022/07/02 07:53:31;;;;;;;8.98;5.75;;;;;;;;;;5110820;28;20512;-73
2022/07/02 07:55:58;;;;;;;7.30;5.63;;;;;;;;;;5110756;28;20031;-73
2022/07/02 07:58:24;;;;;;;10.20;5.45;;;;;;;;;;5110517;28;20402;-73
2022/07/02 08:00:50;;;;;;;8.43;5.78;;;;;;;;;;5110597;28;20565;-74
2022/07/02 08:03:18;;;;;;;10.50;5.47;;;;;;;;;;5110627;28;20020;-73
2022/07/02 08:05:47;;;;;;;9.38;6.05;;;;;;;;;;5110174;28;20028;-73
2022/07/02 08:08:22;;;;;;;7.32;5.30;;;;;;;;;;5111877;27;20454;-72
2022/07/02 08:10:48;;;;;;;7.57;5.28;;;;;;;;;;5111315;28;20066;-72
2022/07/02 08:13:15;;;;;;;8.18;5.55;;;;;;;;;;5110868;28;20430;-72
2022/07/02 08:15:41;;;;;;;8.23;5.90;;;;;;;;;;5111243;28;20016;-73
2022/07/02 08:18:08;;;;;;;8.35;5.43;;;;;;;;;;5111238;28;20020;-73
2022/07/02 08:20:34;;;;;;;11.98;6.00;;;;;;;;;;5111210;28;20016;-73
2022/07/02 08:23:00;;;;;;;9.35;5.53;;;;;;;;;;5111157;28;20020;-73
2022/07/02 08:25:27;;;;;;;9.30;5.90;;;;;;;;;;5110777;28;20024;-73
2022/07/02 08:27:53;;;;;;;9.45;5.78;;;;;;;;;;5110910;28;20111;-73
2022/07/02 08:30:19;;;;;;;9.80;5.50;;;;;;;;;;5111813;28;20064;-73
2022/07/02 08:32:45;;;;;;;9.50;5.88;;;;;;;;;;5110500;28;20387;-73
2022/07/02 08:35:12;;;;;;;10.98;6.68;;;;;;;;;;5110896;28;20506;-74
2022/07/02 08:37:38;;;;;;;6.82;5.18;;;;;;;;;;5110835;28;20024;-74
2022/07/02 08:40:04;;;;;;;10.45;5.70;;;;;;;;;;5110609;28;20031;-74
2022/07/02 08:42:31;;;;;;;7.05;4.93;;;;;;;;;;5110943;28;20024;-74
2022/07/02 08:45:03;;;;;;;8.63;5.75;;;;;;;;;;5110947;28;20341;-73
2022/07/02 08:47:29;;;;;;;7.97;5.70;;;;;;;;;;5126103;28;20035;-73
2022/07/02 08:49:56;;;;;;;7.68;5.28;;;;;;;;;;5110699;28;20099;-72
2022/07/02 08:52:23;;;;;;;9.35;4.95;;;;;;;;;;5110516;28;20035;-73
2022/07/02 08:54:50;;;;;;;6.68;4.25;;;;;;;;;;5110061;28;20054;-72
2022/07/02 08:57:17;;;;;;;7.95;4.60;;;;;;;;;;5126215;28;20050;-72
2022/07/02 08:59:44;;;;;;;8.18;4.20;;;;;;;;;;5111061;28;20437;-72
2022/07/02 09:02:14;;;;;;;7.45;4.85;;;;;;;;;;5109870;28;20069;-72
2022/07/02 09:04:48;;;;;;;6.93;4.40;;;;;;;;;;5126191;28;20447;-72
2022/07/02 09:07:14;;;;;;;8.10;5.07;;;;;;;;;;5110229;28;20048;-73
2022/07/02 09:09:42;;;;;;;9.25;4.95;;;;;;;;;;5109811;28;20023;-73
2022/07/02 09:12:12;;;;;;;7.55;5.00;;;;;;;;;;5126010;28;20031;-73
2022/07/02 09:14:38;;;;;;;8.80;5.95;;;;;;;;;;5109852;28;20028;-73
2022/07/02 09:17:07;;;;;;;7.82;5.13;;;;;;;;;;5110080;28;20028;-73
2022/07/02 09:19:34;;;;;;;9.77;5.05;;;;;;;;;;5097399;28;20024;-73
2022/07/02 09:22:00;;;;;;;7.43;4.68;;;;;;;;;;5096365;28;20133;-73
2022/07/02 09:24:30;;;;;;;17.42;5.07;;;;;;;;;;5096382;28;20017;-73
2022/07/02 09:27:03;;;;;;;7.80;4.82;;;;;;;;;;5096457;28;20028;-73
2022/07/02 09:29:40;;;;;;;8.40;5.43;;;;;;;;;;5095965;28;20020;-72
2022/07/02 09:32:06;;;;;;;9.30;4.70;;;;;;;;;;5096235;28;20031;-72
2022/07/02 09:34:33;;;;;;;7.63;4.47;;;;;;;;;;5096207;28;20032;-73
2022/07/02 09:36:59;;;;;;;7.22;5.00;;;;;;;;;;5095994;28;20030;-73
2022/07/02 09:39:29;;;;;;;6.97;4.70;;;;;;;;;;5096514;28;20024;-73
2022/07/02 09:41:55;;;;;;;6.65;4.45;;;;;;;;;;5096098;28;20032;-73
2022/07/02 09:44:21;;;;;;;6.32;4.30;;;;;;;;;;5095646;28;20430;-73
2022/07/02 09:46:47;;;;;;;7.60;5.00;;;;;;;;;;5095906;28;20525;-73
2022/07/02 09:49:15;;;;;;;7.20;4.93;;;;;;;;;;5095911;28;20032;-73
2022/07/02 09:51:51;;;;;;;8.13;4.28;;;;;;;;;;5095540;28;20398;-73
2022/07/02 09:54:20;;;;;;;6.68;3.80;;;;;;;;;;5112098;28;20051;-73
2022/07/02 09:56:56;;;;;;;9.15;3.85;;;;;;;;;;5095551;28;20024;-73
2022/07/02 09:59:23;;;;;;;6.30;3.97;;;;;;;;;;5095646;28;20063;-73
2022/07/02 10:01:49;;;;;;;7.57;4.30;;;;;;;;;;5095744;28;20483;-73
2022/07/02 10:04:16;;;;;;;7.28;4.07;;;;;;;;;;5110899;28;20529;-73
2022/07/02 10:06:45;;;;;;;7.03;4.40;;;;;;;;;;5095329;28;20082;-73
2022/07/02 10:09:13;;;;;;;7.60;4.50;;;;;;;;;;5095487;28;20574;-73
2022/07/02 10:11:39;;;;;;;6.20;3.58;;;;;;;;;;5095065;28;20024;-73
2022/07/02 10:14:05;;;;;;;7.53;3.75;;;;;;;;;;5095441;28;20099;-73
2022/07/02 10:16:32;;;;;;;7.32;3.88;;;;;;;;;;5111059;28;20021;-73
2022/07/02 10:18:59;;;;;;;5.28;3.38;;;;;;;;;;5095187;28;20536;-73
2022/07/02 10:21:25;;;;;;;7.57;3.70;;;;;;;;;;5095270;28;20017;-73
2022/07/02 10:23:52;;;;;;;6.10;3.55;;;;;;;;;;5095509;28;20024;-73
2022/07/02 10:26:18;;;;;;;6.40;4.10;;;;;;;;;;5094735;28;20024;-73
2022/07/02 10:28:44;;;;;;;5.68;4.13;;;;;;;;;;5095252;28;20055;-73
2022/07/02 10:31:18;;;;;;;6.25;3.40;;;;;;;;;;5094074;28;20020;-73
2022/07/02 10:33:54;;;;;;;7.28;3.72;;;;;;;;;;5094711;28;20020;-74
2022/07/02 10:36:21;;;;;;;6.60;3.88;;;;;;;;;;5095013;28;20048;-74
2022/07/02 10:38:56;;;;;;;7.15;4.10;;;;;;;;;;5094617;28;20476;-74
2022/07/02 10:41:26;;;;;;;8.20;4.35;;;;;;;;;;5095026;28;20099;-73
2022/07/02 10:43:54;;;;;;;5.43;3.58;;;;;;;;;;5094817;28;20035;-73
2022/07/02 10:46:20;;;;;;;6.85;4.18;;;;;;;;;;5094439;28;20028;-74
2022/07/02 10:48:48;;;;;;;5.00;3.42;;;;;;;;;;5095114;28;20042;-73
2022/07/02 10:51:34;;;;;;;5.43;3.95;;;;;;;;;;5110346;28;20103;-73
2022/07/02 10:54:02;;;;;;;7.82;3.92;;;;;;;;;;5110087;28;20024;-73
2022/07/02 10:56:28;;;;;;;6.18;3.58;;;;;;;;;;5094908;28;20122;-73
2022/07/02 10:58:55;;;;;;;7.97;4.03;;;;;;;;;;5094807;28;20089;-74
2022/07/02 11:01:22;;;;;;;7.43;4.47;;;;;;;;;;5094115;28;20054;-74
2022/07/02 11:03:54;;;;;;;5.32;3.28;;;;;;;;;;5094466;28;20054;-74
2022/07/02 11:06:25;;;;;;;6.25;3.70;;;;;;;;;;5094427;28;20106;-73
2022/07/02 11:08:52;;;;;;;4.80;3.55;;;;;;;;;;5109781;28;20020;-73
2022/07/02 11:11:20;;;;;;;6.80;3.55;;;;;;;;;;5110014;28;20023;-74
2022/07/02 11:13:47;;;;;;;7.35;4.20;;;;;;;;;;5094290;28;20382;-73
2022/07/02 11:16:22;;;;;;;9.60;4.00;;;;;;;;;;5093809;28;20043;-73
2022/07/02 11:18:49;;;;;;;6.05;3.78;;;;;;;;;;5109854;28;20480;-74
2022/07/02 11:21:16;;;;;;;6.13;3.97;;;;;;;;;;5093737;28;20102;-73
2022/07/02 11:23:43;;;;;;;5.22;3.53;;;;;;;;;;5094162;28;20032;-73
2022/07/02 11:26:09;;;;;;;5.35;3.70;;;;;;;;;;5109707;28;20113;-73
2022/07/02 11:28:38;;;;;;;6.93;4.15;;;;;;;;;;5109292;28;20028;-73
2022/07/02 11:31:05;;;;;;;8.02;3.72;;;;;;;;;;5109707;28;20048;-74
2022/07/02 11:33:34;;;;;;;5.90;3.40;;;;;;;;;;5109654;28;20468;-74
2022/07/02 11:36:01;;;;;;;8.23;3.58;;;;;;;;;;5109226;28;20024;-74
2022/07/02 11:38:27;;;;;;;7.07;3.75;;;;;;;;;;5093964;28;20020;-74
2022/07/02 11:40:53;;;;;;;5.30;3.45;;;;;;;;;;5093709;28;20042;-74
2022/07/02 11:43:20;;;;;;;6.47;3.78;;;;;;;;;;5093371;28;20545;-74
2022/07/02 11:45:47;;;;;;;5.15;3.60;;;;;;;;;;5093862;28;20103;-74
2022/07/02 11:48:23;;;;;;;10.35;4.78;;;;;;;;;;5109360;28;20039;-74
2022/07/02 11:50:56;;;;;;;11.68;4.25;;;;;;;;;;5093344;28;20024;-73
2022/07/02 11:53:22;;;;;;;10.25;5.32;;;;;;;;;;5109384;28;20028;-73
2022/07/02 11:55:49;;;;;;;6.57;4.00;;;;;;;;;;5093784;28;20623;-72
2022/07/02 11:58:15;;;;;;;11.40;5.45;;;;;;;;;;5093203;28;20020;-72
2022/07/02 12:00:41;;;;;;;14.63;5.10;;;;;;;;;;5094036;28;20028;-70
2022/07/02 12:03:10;;;;;;;8.90;4.82;;;;;;;;;;5093857;28;20020;-70
2022/07/02 12:05:37;;;;;;;8.13;5.78;;;;;;;;;;5109291;28;20483;-71
2022/07/02 12:08:04;;;;;;;9.90;5.45;;;;;;;;;;5093323;28;20044;-70
2022/07/02 12:10:38;;;;;;;10.02;6.57;;;;;;;;;;5093269;28;20065;-70
2022/07/02 12:13:11;;;;;;;9.75;6.63;;;;;;;;;;5093579;28;20103;-71
2022/07/02 12:15:37;;;;;;;;;;;;;;;;;;5094453;28;20482;-71
2022/07/02 12:19:31;;;;;;;9.13;6.18;;;;;;;;;;5111235;27;20396;-71
2022/07/02 12:21:58;;;;;;;7.30;5.60;;;;;;;;;;5111678;28;20055;-71
2022/07/02 12:24:25;;;;;;;8.38;5.90;;;;;;;;;;5110888;28;20028;-71
2022/07/02 12:31:51;;;;;;;6.65;4.43;;;;;;;;;;5111217;28;20043;-71
2022/07/02 12:34:17;;;;;;;7.28;4.85;;;;;;;;;;5111360;28;20024;-71
2022/07/02 12:36:46;;;;;;;6.55;3.90;;;;;;;;;;5111739;28;20371;-71
2022/07/02 12:39:12;;;;;;;8.43;4.50;;;;;;;;;;5110854;28;20031;-71
2022/07/02 12:41:39;;;;;;;7.68;5.00;;;;;;;;;;5126961;28;20020;-71
2022/07/02 12:44:50;;;;;;;8.18;4.95;;;;;;;;;;5111954;27;20404;-71
2022/07/02 12:47:23;;;;;;;9.00;5.93;;;;;;;;;;5109708;28;20027;-71
2022/07/02 12:49:53;;;;;;;7.80;5.65;;;;;;;;;;5110003;28;20027;-71
2022/07/02 12:52:19;;;;;;;8.15;5.38;;;;;;;;;;5111247;28;20020;-71
2022/07/02 12:54:45;;;;;;;6.95;4.70;;;;;;;;;;5109500;28;20118;-71
2022/07/02 12:57:12;;;;;;;7.13;4.72;;;;;;;;;;5109839;28;20082;-71
2022/07/02 12:59:38;;;;;;;8.88;4.75;;;;;;;;;;5109398;28;20115;-71
2022/07/02 13:02:05;;;;;;;7.85;4.88;;;;;;;;;;5111168;28;20476;-71
2022/07/02 13:04:31;;;;;;;8.00;5.10;;;;;;;;;;5111107;28;20538;-71
2022/07/02 13:06:57;;;;;;;8.50;5.20;;;;;;;;;;5110488;28;20022;-72
2022/07/02 13:09:23;;;;;;;7.40;5.53;;;;;;;;;;5110967;28;20098;-72
2022/07/02 13:11:49;;;;;;;9.63;5.57;;;;;;;;;;5110885;28;20095;-71
2022/07/02 13:14:15;;;;;;;8.80;5.72;;;;;;;;;;5110443;28;20024;-71
2022/07/02 13:16:41;;;;;;;8.15;5.45;;;;;;;;;;5109509;28;20035;-72
2022/07/02 13:19:08;;;;;;;9.23;5.93;;;;;;;;;;5110902;28;20024;-72
2022/07/02 13:21:34;;;;;;;7.65;5.00;;;;;;;;;;5109071;28;20030;-72
2022/07/02 13:24:00;;;;;;;9.48;5.63;;;;;;;;;;5110619;28;20041;-72
2022/07/02 13:27:42;;;;;;;7.15;4.70;;;;;;;;;;5111506;27;20466;-71
2022/07/02 13:30:13;;;;;;;6.43;4.10;;;;;;;;;;5111688;28;20107;-71
2022/07/02 13:32:39;;;;;;;6.88;4.57;;;;;;;;;;5111837;28;20095;-72
2022/07/02 13:35:06;;;;;;;8.40;4.45;;;;;;;;;;5109597;28;20475;-73
2022/07/02 13:37:32;;;;;;;7.30;4.60;;;;;;;;;;5111189;28;20099;-72
2022/07/02 13:39:59;;;;;;;9.45;4.55;;;;;;;;;;5109944;28;20028;-73
2022/07/02 13:42:25;;;;;;;8.00;4.32;;;;;;;;;;5109430;28;20024;-73
2022/07/02 13:44:51;;;;;;;8.00;4.47;;;;;;;;;;5110998;28;20031;-72
2022/07/02 13:47:17;;;;;;;9.73;4.93;;;;;;;;;;5111018;28;20031;-72
2022/07/02 13:49:44;;;;;;;9.57;5.38;;;;;;;;;;5110613;28;20475;-72
2022/07/02 13:52:10;;;;;;;13.30;6.68;;;;;;;;;;5110820;28;20028;-72
2022/07/02 13:54:36;;;;;;;7.82;4.72;;;;;;;;;;5110812;28;20436;-72
2022/07/02 13:57:02;;;;;;;7.03;4.90;;;;;;;;;;5110369;28;20104;-72
2022/07/02 13:59:29;;;;;;;7.30;4.82;;;;;;;;;;5110763;28;20020;-72
2022/07/02 14:01:55;;;;;;;6.88;4.30;;;;;;;;;;5109465;28;20028;-73
2022/07/02 14:04:21;;;;;;;6.18;4.50;;;;;;;;;;5110374;28;20043;-72
2022/07/02 14:07:12;;;;;;;7.78;4.47;;;;;;;;;;5111871;27;20393;-71
2022/07/02 14:09:38;;;;;;;7.85;4.20;;;;;;;;;;5109947;28;20025;-72
2022/07/02 14:12:05;;;;;;;5.68;4.15;;;;;;;;;;5110810;28;20085;-72
2022/07/02 14:14:31;;;;;;;6.47;4.10;;;;;;;;;;5109853;28;20024;-72
2022/07/02 14:16:57;;;;;;;7.50;4.80;;;;;;;;;;5110692;28;20027;-71
2022/07/02 14:19:23;;;;;;;10.88;6.25;;;;;;;;;;5111222;28;20024;-72
2022/07/02 14:21:50;;;;;;;7.53;5.05;;;;;;;;;;5111111;28;20012;-72
2022/07/02 14:24:16;;;;;;;6.38;4.38;;;;;;;;;;5110596;28;20028;-73
2022/07/02 14:26:42;;;;;;;6.80;4.20;;;;;;;;;;5110961;28;20040;-73
2022/07/02 14:29:08;;;;;;;6.13;4.07;;;;;;;;;;5110987;28;20138;-73
2022/07/02 14:31:34;;;;;;;8.63;4.60;;;;;;;;;;5109255;28;20034;-72
2022/07/02 14:34:00;;;;;;;11.35;4.45;;;;;;;;;;5111038;28;20098;-71
2022/07/02 14:36:26;;;;;;;6.78;4.45;;;;;;;;;;5111129;28;20024;-71
2022/07/02 14:38:53;;;;;;;7.32;4.30;;;;;;;;;;5110242;28;20089;-73
2022/07/02 14:41:31;;;;;;;7.18;4.53;;;;;;;;;;5109407;28;20028;-73
2022/07/02 14:43:57;;;;;;;6.85;4.32;;;;;;;;;;5109432;28;20594;-73
2022/07/02 14:46:29;;;;;;;8.10;4.60;;;;;;;;;;5110190;28;20368;-73
2022/07/02 14:48:55;;;;;;;7.53;4.15;;;;;;;;;;5110933;28;20031;-73
2022/07/02 14:51:21;;;;;;;8.38;4.35;;;;;;;;;;5110854;28;20024;-72
2022/07/02 14:53:48;;;;;;;11.38;4.15;;;;;;;;;;5108817;28;20016;-73
2022/07/02 14:56:14;;;;;;;5.68;3.50;;;;;;;;;;5110609;28;20535;-73
2022/07/02 14:58:40;;;;;;;6.03;3.30;;;;;;;;;;5109128;28;20480;-72
2022/07/02 15:01:06;;;;;;;6.88;3.63;;;;;;;;;;5108652;28;20114;-72
2022/07/02 15:03:32;;;;;;;5.82;2.80;;;;;;;;;;5110342;28;20030;-71
2022/07/02 15:05:59;;;;;;;5.28;3.20;;;;;;;;;;5108641;28;20416;-71
2022/07/02 15:08:25;;;;;;;4.93;3.30;;;;;;;;;;5110437;28;20050;-71
2022/07/02 15:10:51;;;;;;;5.75;2.90;;;;;;;;;;5108921;28;20028;-71
2022/07/02 15:13:18;;;;;;;5.43;3.10;;;;;;;;;;5108473;28;20047;-72
2022/07/02 15:15:59;;;;;;;4.20;2.50;;;;;;;;;;5110131;28;20477;-72
2022/07/02 15:18:29;;;;;;;8.55;3.38;;;;;;;;;;5097125;28;20056;-72
2022/07/02 15:20:57;;;;;;;6.43;3.45;;;;;;;;;;5094716;28;20122;-72
2022/07/02 15:23:24;;;;;;;4.38;2.92;;;;;;;;;;5096363;28;20030;-72
2022/07/02 15:25:50;;;;;;;5.68;3.15;;;;;;;;;;5094972;28;20057;-71
2022/07/02 15:28:21;;;;;;;4.68;3.10;;;;;;;;;;5095855;28;20027;-72
2022/07/02 15:30:48;;;;;;;5.43;3.33;;;;;;;;;;5096579;28;20056;-71
2022/07/02 15:33:17;;;;;;;6.70;4.10;;;;;;;;;;5096165;28;20095;-71
2022/07/02 15:35:46;;;;;;;4.78;3.47;;;;;;;;;;5095815;28;20059;-70
2022/07/02 15:38:13;;;;;;;4.72;2.88;;;;;;;;;;5096076;28;20142;-71
2022/07/02 15:40:39;;;;;;;4.28;2.95;;;;;;;;;;5096203;28;20028;-72
2022/07/02 15:43:06;;;;;;;5.13;3.10;;;;;;;;;;5095577;28;20020;-72
2022/07/02 15:45:32;;;;;;;3.83;2.60;;;;;;;;;;5096070;28;20031;-72
2022/07/02 15:47:59;;;;;;;5.10;3.05;;;;;;;;;;5095920;28;20032;-72
2022/07/02 15:50:31;;;;;;;5.25;2.75;;;;;;;;;;5095463;28;20027;-73
2022/07/02 15:53:07;;;;;;;4.03;3.13;;;;;;;;;;5095967;28;20024;-72
2022/07/02 15:55:38;;;;;;;4.80;3.13;;;;;;;;;;5094358;28;20035;-72
2022/07/02 15:58:07;;;;;;;6.03;3.33;;;;;;;;;;5095939;28;20028;-72
2022/07/02 16:00:34;;;;;;;5.50;3.28;;;;;;;;;;5095625;28;20450;-73
2022/07/02 16:03:00;;;;;;;8.75;3.85;;;;;;;;;;5095217;28;20024;-73
2022/07/02 16:05:26;;;;;;;7.20;3.83;;;;;;;;;;5095179;28;20126;-72
2022/07/02 16:07:53;;;;;;;7.72;3.75;;;;;;;;;;5095384;28;20058;-73
2022/07/02 16:10:20;;;;;;;6.63;3.40;;;;;;;;;;5095311;28;20027;-73
2022/07/02 16:12:47;;;;;;;7.10;3.90;;;;;;;;;;5094034;28;20028;-73
2022/07/02 16:15:14;;;;;;;7.03;4.25;;;;;;;;;;5095382;28;20036;-73
2022/07/02 16:17:42;;;;;;;7.72;4.35;;;;;;;;;;5094903;28;20480;-73